createdAt,value
2023-01-22T00:00:58.170Z,7.77
2023-01-22T00:03:46.756Z,7.43
2023-01-22T00:06:33.826Z,8.93
2023-01-22T00:09:22.361Z,11.27
2023-01-22T00:12:09.608Z,7.63
2023-01-22T00:14:56.515Z,8.07
2023-01-22T00:17:44.194Z,8.03
2023-01-22T00:20:30.842Z,7.97
2023-01-22T00:23:17.456Z,7.23
2023-01-22T00:26:05.110Z,9.03
2023-01-22T00:28:51.515Z,11.57
2023-01-22T00:31:38.593Z,6.67
2023-01-22T00:34:26.762Z,8.97
2023-01-22T00:37:13.186Z,11.20
2023-01-22T00:40:00.247Z,8.23
2023-01-22T00:42:47.014Z,10.43
2023-01-22T00:45:34.179Z,9.23
2023-01-22T00:48:20.969Z,9.40
2023-01-22T00:51:10.030Z,14.87
2023-01-22T00:53:56.470Z,9.17
2023-01-22T00:56:42.866Z,8.17
2023-01-22T00:59:29.135Z,8.60
2023-01-22T01:02:15.670Z,9.33
2023-01-22T01:05:02.537Z,9.73
2023-01-22T01:07:50.240Z,11.50
2023-01-22T01:10:36.848Z,8.00
2023-01-22T01:13:23.373Z,7.83
2023-01-22T01:16:14.062Z,9.63
2023-01-22T01:19:00.604Z,8.50
2023-01-22T01:21:47.213Z,10.90
2023-01-22T01:24:36.512Z,8.97
2023-01-22T01:27:22.977Z,7.87
2023-01-22T01:30:10.759Z,7.47
2023-01-22T01:32:57.198Z,8.90
2023-01-22T01:35:43.613Z,12.10
2023-01-22T01:38:30.091Z,8.60
2023-01-22T01:41:21.828Z,9.33
2023-01-22T01:44:14.040Z,11.27
2023-01-22T01:47:05.349Z,6.87
2023-01-22T01:49:54.547Z,8.63
2023-01-22T01:52:41.589Z,9.43
2023-01-22T01:55:30.979Z,8.50
2023-01-22T01:58:21.703Z,10.77
2023-01-22T02:01:12.701Z,7.23
2023-01-22T02:03:59.593Z,7.53
2023-01-22T02:06:46.039Z,8.13
2023-01-22T02:09:32.672Z,6.83
2023-01-22T02:12:19.384Z,7.90
2023-01-22T02:15:09.478Z,8.20
2023-01-22T02:17:55.948Z,7.97
2023-01-22T02:20:53.220Z,7.43
2023-01-22T02:23:39.961Z,8.60
2023-01-22T02:26:26.488Z,8.00
2023-01-22T02:29:15.369Z,8.43
2023-01-22T02:32:01.934Z,7.70
2023-01-22T02:34:48.437Z,8.37
2023-01-22T02:37:36.061Z,8.10
2023-01-22T02:40:22.914Z,7.20
2023-01-22T02:43:09.382Z,7.33
2023-01-22T02:45:55.763Z,7.93
2023-01-22T02:48:42.708Z,7.63
2023-01-22T02:51:29.228Z,8.70
2023-01-22T02:54:17.036Z,11.07
2023-01-22T02:57:03.482Z,5.90
2023-01-22T02:59:50.199Z,7.17
2023-01-22T03:02:36.789Z,6.50
2023-01-22T03:05:23.284Z,8.10
2023-01-22T03:08:09.829Z,7.53
2023-01-22T03:11:00.476Z,7.73
2023-01-22T03:14:04.904Z,8.33
2023-01-22T03:17:08.869Z,6.70
2023-01-22T03:20:12.799Z,6.70
2023-01-22T03:23:00.384Z,7.57
2023-01-22T03:25:47.022Z,8.10
2023-01-22T03:28:34.919Z,7.07
2023-01-22T03:31:21.760Z,9.10
2023-01-22T03:34:08.613Z,7.30
2023-01-22T03:36:54.982Z,8.70
2023-01-22T03:39:41.644Z,6.63
2023-01-22T03:42:28.395Z,8.20
2023-01-22T03:45:16.250Z,7.50
2023-01-22T03:48:02.981Z,9.33
2023-01-22T03:50:49.391Z,6.13
2023-01-22T03:53:36.029Z,7.73
2023-01-22T03:56:24.127Z,5.30
2023-01-22T03:59:11.681Z,6.43
2023-01-22T04:01:59.729Z,5.73
2023-01-22T04:04:47.787Z,7.27
2023-01-22T04:07:34.409Z,7.63
2023-01-22T04:10:20.881Z,5.93
2023-01-22T04:13:07.515Z,6.50
2023-01-22T04:15:54.099Z,7.40
2023-01-22T04:18:42.274Z,7.43
2023-01-22T04:21:29.008Z,6.93
2023-01-22T04:24:15.467Z,8.80
2023-01-22T04:27:01.705Z,8.03
2023-01-22T04:29:48.113Z,7.80
2023-01-22T04:32:34.655Z,7.63
2023-01-22T04:35:22.483Z,7.03
2023-01-22T04:38:12.778Z,6.90
2023-01-22T04:40:59.254Z,7.80
2023-01-22T04:43:45.755Z,6.23
2023-01-22T04:46:32.119Z,7.50
2023-01-22T04:49:18.552Z,7.47
2023-01-22T04:52:06.644Z,6.77
2023-01-22T04:54:53.913Z,7.77
2023-01-22T04:57:40.633Z,8.17
2023-01-22T05:00:28.003Z,7.40
2023-01-22T05:03:15.225Z,7.47
2023-01-22T05:06:04.373Z,9.37
2023-01-22T05:08:52.310Z,8.23
2023-01-22T05:11:39.025Z,9.73
2023-01-22T05:14:25.383Z,8.13
2023-01-22T05:17:11.770Z,8.27
2023-01-22T05:19:58.225Z,6.03
2023-01-22T05:22:44.484Z,7.97
2023-01-22T05:25:32.196Z,6.77
2023-01-22T05:28:19.012Z,7.40
2023-01-22T05:31:05.632Z,7.63
2023-01-22T05:33:52.099Z,7.57
2023-01-22T05:36:38.564Z,7.73
2023-01-22T05:39:24.932Z,6.87
2023-01-22T05:42:15.863Z,8.70
2023-01-22T05:45:02.429Z,8.57
2023-01-22T05:47:53.117Z,7.33
2023-01-22T05:50:41.031Z,9.10
2023-01-22T05:53:27.498Z,8.83
2023-01-22T05:56:13.883Z,9.10
2023-01-22T05:59:01.802Z,8.93
2023-01-22T06:01:48.387Z,8.00
2023-01-22T06:04:34.685Z,7.27
2023-01-22T06:07:21.073Z,7.77
2023-01-22T06:10:08.763Z,7.53
2023-01-22T06:12:55.097Z,7.87
2023-01-22T06:15:44.364Z,8.57
2023-01-22T06:18:31.048Z,7.37
2023-01-22T06:21:17.729Z,7.57
2023-01-22T06:24:04.373Z,6.70
2023-01-22T06:26:50.889Z,9.03
2023-01-22T06:29:39.888Z,9.40
2023-01-22T06:32:28.047Z,7.13
2023-01-22T06:35:14.709Z,8.33
2023-01-22T06:38:01.132Z,8.97
2023-01-22T06:40:52.306Z,7.17
2023-01-22T06:43:38.821Z,8.10
2023-01-22T06:46:25.371Z,6.50
2023-01-22T06:49:13.964Z,7.27
2023-01-22T06:52:00.317Z,7.80
2023-01-22T06:54:47.257Z,7.77
2023-01-22T06:57:33.680Z,6.87
2023-01-22T07:00:21.137Z,8.37
2023-01-22T07:03:08.883Z,9.60
2023-01-22T07:06:00.938Z,8.40
2023-01-22T07:08:47.396Z,9.03
2023-01-22T07:11:33.744Z,8.37
2023-01-22T07:14:35.723Z,8.13
2023-01-22T07:17:23.101Z,8.70
2023-01-22T07:20:10.983Z,7.27
2023-01-22T07:23:00.496Z,7.27
2023-01-22T07:25:47.448Z,8.93
2023-01-22T07:28:34.199Z,5.87
2023-01-22T07:31:20.901Z,7.37
2023-01-22T07:34:07.656Z,7.47
2023-01-22T07:36:54.481Z,9.87
2023-01-22T07:39:42.132Z,9.60
2023-01-22T07:42:28.483Z,7.23
2023-01-22T07:45:14.998Z,8.67
2023-01-22T07:48:02.600Z,11.67
2023-01-22T07:50:49.346Z,7.10
2023-01-22T07:53:36.611Z,8.13
2023-01-22T07:56:24.650Z,13.03
2023-01-22T07:59:11.268Z,7.93
2023-01-22T08:01:58.126Z,10.93
2023-01-22T08:04:44.827Z,7.97
2023-01-22T08:07:31.437Z,11.93
2023-01-22T08:10:18.926Z,10.33
2023-01-22T08:13:07.010Z,7.03
2023-01-22T08:15:55.029Z,8.40
2023-01-22T08:18:41.590Z,6.73
2023-01-22T08:21:27.957Z,8.67
2023-01-22T08:24:14.356Z,8.33
2023-01-22T08:27:00.785Z,8.13
2023-01-22T08:29:51.693Z,8.00
2023-01-22T08:32:41.243Z,8.27
2023-01-22T08:35:27.745Z,11.87
2023-01-22T08:38:14.912Z,9.63
2023-01-22T08:41:01.461Z,8.63
2023-01-22T08:43:48.013Z,8.13
2023-01-22T08:46:36.058Z,7.83
2023-01-22T08:49:22.604Z,8.37
2023-01-22T08:52:09.127Z,7.57
2023-01-22T08:54:55.542Z,10.00
2023-01-22T08:57:42.003Z,6.63
2023-01-22T09:00:28.462Z,12.73
2023-01-22T09:03:16.253Z,7.93
2023-01-22T09:06:02.957Z,9.27
2023-01-22T09:08:49.419Z,7.20
2023-01-22T09:11:36.065Z,8.57
2023-01-22T09:14:22.829Z,9.03
2023-01-22T09:17:09.616Z,7.07
2023-01-22T09:19:58.636Z,8.17
2023-01-22T09:22:46.555Z,8.53
2023-01-22T09:25:33.220Z,13.50
2023-01-22T09:28:19.622Z,7.97
2023-01-22T09:31:06.430Z,10.77
2023-01-22T09:33:54.881Z,7.60
2023-01-22T09:36:43.247Z,6.83
2023-01-22T09:39:29.814Z,7.73
2023-01-22T09:42:20.527Z,14.00
2023-01-22T09:45:12.812Z,8.80
2023-01-22T09:48:02.835Z,10.10
2023-01-22T09:50:50.725Z,8.77
2023-01-22T09:53:38.912Z,9.17
2023-01-22T09:56:35.040Z,8.27
2023-01-22T09:59:23.577Z,6.27
2023-01-22T10:02:22.394Z,9.43
2023-01-22T10:05:18.926Z,7.97
2023-01-22T10:08:11.258Z,9.33
2023-01-22T10:11:01.689Z,6.77
2023-01-22T10:13:50.770Z,8.07
2023-01-22T10:16:38.335Z,7.20
2023-01-22T10:19:28.458Z,9.23
2023-01-22T10:22:19.759Z,9.33
2023-01-22T10:25:07.337Z,11.07
2023-01-22T10:28:04.208Z,12.17
2023-01-22T10:30:53.094Z,10.47
2023-01-22T10:33:44.434Z,11.77
2023-01-22T10:36:32.219Z,12.93
2023-01-22T10:39:20.456Z,39.30
2023-01-22T10:42:07.303Z,16.17
2023-01-22T10:44:58.600Z,13.83
2023-01-22T10:47:45.030Z,15.40
2023-01-22T10:50:31.382Z,10.73
2023-01-22T10:53:33.595Z,9.53
2023-01-22T10:56:30.014Z,9.97
2023-01-22T10:59:27.045Z,11.57
2023-01-22T11:02:21.522Z,11.40
2023-01-22T11:05:14.799Z,7.00
2023-01-22T11:08:04.823Z,16.57
2023-01-22T11:10:55.382Z,9.57
2023-01-22T11:13:50.176Z,8.30
2023-01-22T11:16:39.800Z,12.30
2023-01-22T11:19:37.600Z,11.70
2023-01-22T11:22:30.059Z,10.23
2023-01-22T11:25:16.598Z,11.60
2023-01-22T11:28:12.955Z,12.57
2023-01-22T11:31:13.139Z,12.57
2023-01-22T11:34:30.225Z,9.53
2023-01-22T11:37:20.377Z,9.83
2023-01-22T11:40:23.411Z,13.67
2023-01-22T11:43:29.784Z,11.07
2023-01-22T11:46:33.921Z,10.67
2023-01-22T11:49:34.677Z,10.10
2023-01-22T11:55:04.194Z,8.00
2023-01-22T11:57:59.099Z,11.10
2023-01-22T12:00:50.978Z,10.17
2023-01-22T12:03:56.744Z,9.23
2023-01-22T12:07:03.468Z,13.20
2023-01-22T12:09:56.001Z,9.13
2023-01-22T12:12:50.138Z,10.33
2023-01-22T12:15:45.483Z,7.87
2023-01-22T12:18:59.156Z,9.50
2023-01-22T12:21:59.331Z,15.30
2023-01-22T12:24:51.361Z,12.53
2023-01-22T12:27:41.980Z,10.40
2023-01-22T12:30:35.020Z,7.97
2023-01-22T12:33:26.433Z,9.67
2023-01-22T12:36:19.239Z,6.97
2023-01-22T12:39:17.051Z,10.87
2023-01-22T12:42:16.784Z,7.87
2023-01-22T12:45:08.080Z,14.00
2023-01-22T12:47:59.938Z,11.93
2023-01-22T12:50:50.745Z,9.87
2023-01-22T12:53:39.180Z,10.87
2023-01-22T12:56:34.023Z,8.87
2023-01-22T12:59:42.860Z,12.60
2023-01-22T13:02:37.946Z,7.47
2023-01-22T13:05:41.066Z,11.07
2023-01-22T13:08:36.739Z,9.03
2023-01-22T13:11:30.961Z,10.67
2023-01-22T13:14:23.421Z,9.77
2023-01-22T13:17:19.791Z,8.20
2023-01-22T13:20:16.212Z,8.53
2023-01-22T13:23:05.911Z,11.57
2023-01-22T13:25:55.739Z,13.60
2023-01-22T13:28:42.859Z,8.30
2023-01-22T13:31:30.692Z,8.60
2023-01-22T13:34:17.264Z,12.10
2023-01-22T13:37:03.735Z,10.63
2023-01-22T13:39:50.180Z,11.23
2023-01-22T13:42:36.841Z,9.53
2023-01-22T13:45:26.638Z,10.33
2023-01-22T13:48:18.777Z,13.17
2023-01-22T13:51:08.966Z,10.93
2023-01-22T13:53:56.611Z,13.47
2023-01-22T13:56:43.608Z,14.40
2023-01-22T13:59:35.067Z,17.33
2023-01-22T14:02:31.942Z,20.07
2023-01-22T14:05:22.786Z,17.47
2023-01-22T14:08:12.505Z,14.40
2023-01-22T14:10:59.894Z,9.70
2023-01-22T14:13:48.602Z,9.33
2023-01-22T14:16:41.459Z,12.17
2023-01-22T14:19:29.096Z,9.33
2023-01-22T14:22:16.964Z,8.77
2023-01-22T14:25:03.725Z,13.80
2023-01-22T14:27:51.345Z,12.63
2023-01-22T14:30:37.878Z,8.33
2023-01-22T14:33:26.393Z,9.80
2023-01-22T14:36:13.104Z,7.07
2023-01-22T14:39:00.923Z,9.23
2023-01-22T14:41:49.481Z,9.10
2023-01-22T14:44:37.014Z,9.90
2023-01-22T14:47:23.763Z,8.17
2023-01-22T14:50:11.798Z,9.10
2023-01-22T14:52:58.708Z,7.67
2023-01-22T14:55:46.595Z,12.27
2023-01-22T14:58:33.199Z,7.83
2023-01-22T15:01:21.204Z,8.30
2023-01-22T15:04:08.342Z,8.93
2023-01-22T15:06:55.009Z,6.70
2023-01-22T15:09:41.668Z,11.67
2023-01-22T15:12:29.816Z,9.73
2023-01-22T15:15:16.869Z,9.63
2023-01-22T15:18:03.180Z,12.40
2023-01-22T15:20:49.590Z,9.23
2023-01-22T15:23:36.594Z,9.47
2023-01-22T15:26:28.285Z,9.80
2023-01-22T15:29:16.336Z,9.23
2023-01-22T15:32:02.957Z,8.03
2023-01-22T15:34:49.567Z,10.20
2023-01-22T15:37:36.116Z,13.67
2023-01-22T15:40:22.409Z,9.27
2023-01-22T15:43:08.938Z,14.57
2023-01-22T15:45:56.850Z,12.63
2023-01-22T15:48:43.578Z,6.97
2023-01-22T15:51:30.988Z,9.47
2023-01-22T15:54:17.978Z,9.43
2023-01-22T15:57:04.789Z,12.47
2023-01-22T15:59:51.569Z,7.67
2023-01-22T16:02:39.527Z,7.27
2023-01-22T16:05:26.227Z,5.50
2023-01-22T16:08:12.614Z,7.27
2023-01-22T16:10:59.226Z,10.03
2023-01-22T16:13:46.105Z,8.03
2023-01-22T16:16:34.961Z,10.70
2023-01-22T16:19:24.082Z,7.67
2023-01-22T16:22:11.095Z,7.93
2023-01-22T16:24:57.499Z,10.13
2023-01-22T16:27:44.865Z,8.17
2023-01-22T16:30:31.241Z,7.13
2023-01-22T16:33:20.837Z,7.40
2023-01-22T16:36:13.071Z,8.03
2023-01-22T16:38:59.393Z,9.73
2023-01-22T16:41:48.071Z,9.97
2023-01-22T16:44:34.709Z,6.57
2023-01-22T16:47:21.060Z,6.33
2023-01-22T16:50:10.265Z,6.23
2023-01-22T16:52:58.557Z,8.40
2023-01-22T16:55:45.016Z,8.13
2023-01-22T16:58:31.462Z,8.00
2023-01-22T17:01:18.006Z,4.87
2023-01-22T17:04:05.002Z,7.87
2023-01-22T17:06:53.113Z,8.70
2023-01-22T17:09:41.255Z,6.73
2023-01-22T17:12:28.063Z,15.33
2023-01-22T17:15:14.528Z,11.80
2023-01-22T17:18:00.776Z,9.70
2023-01-22T17:21:01.414Z,10.60
2023-01-22T17:23:48.799Z,9.53
2023-01-22T17:26:36.523Z,8.47
2023-01-22T17:29:23.587Z,10.30
2023-01-22T17:32:10.123Z,7.40
2023-01-22T17:34:56.469Z,8.40
2023-01-22T17:37:43.090Z,7.67
2023-01-22T17:40:29.846Z,6.63
2023-01-22T17:43:17.511Z,7.53
2023-01-22T17:46:08.533Z,10.37
2023-01-22T17:48:56.656Z,8.93
2023-01-22T17:51:45.151Z,9.07
2023-01-22T17:54:31.488Z,6.47
2023-01-22T17:57:17.883Z,10.20
2023-01-22T18:00:06.905Z,5.47
2023-01-22T18:02:53.576Z,7.07
2023-01-22T18:05:40.488Z,7.47
2023-01-22T18:08:28.495Z,6.40
2023-01-22T18:11:17.492Z,7.17
2023-01-22T18:14:07.157Z,6.13
2023-01-22T18:16:55.752Z,6.63
2023-01-22T18:19:42.391Z,9.83
2023-01-22T18:22:28.887Z,8.57
2023-01-22T18:25:15.287Z,6.73
2023-01-22T18:28:01.698Z,9.10
2023-01-22T18:30:48.598Z,7.63
2023-01-22T18:33:37.584Z,8.27
2023-01-22T18:36:26.142Z,7.50
2023-01-22T18:39:14.942Z,6.33
2023-01-22T18:42:01.567Z,7.23
2023-01-22T18:44:47.993Z,7.57
2023-01-22T18:47:34.699Z,8.50
2023-01-22T18:50:22.665Z,6.63
2023-01-22T18:53:10.171Z,7.63
2023-01-22T18:56:00.142Z,11.73
2023-01-22T18:58:48.090Z,8.93
2023-01-22T19:01:36.443Z,9.00
2023-01-22T19:04:23.626Z,9.73
2023-01-22T19:07:11.642Z,8.33
2023-01-22T19:09:59.617Z,7.60
2023-01-22T19:12:46.701Z,10.80
2023-01-22T19:15:34.024Z,19.17
2023-01-22T19:18:20.326Z,23.53
2023-01-22T19:21:08.713Z,11.13
2023-01-22T19:23:58.087Z,20.83
2023-01-22T19:26:46.598Z,12.60
2023-01-22T19:29:33.499Z,11.97
2023-01-22T19:32:27.566Z,15.13
2023-01-22T19:35:14.340Z,12.10
2023-01-22T19:38:00.647Z,16.17
2023-01-22T19:40:48.466Z,13.37
2023-01-22T19:43:34.809Z,12.20
2023-01-22T19:46:21.348Z,13.13
2023-01-22T19:49:08.957Z,13.43
2023-01-22T19:51:55.644Z,12.00
2023-01-22T19:54:47.309Z,10.33
2023-01-22T19:57:35.453Z,8.63
2023-01-22T20:00:22.692Z,17.33
2023-01-22T20:03:09.401Z,10.30
2023-01-22T20:05:55.965Z,10.80
2023-01-22T20:08:42.961Z,14.17
2023-01-22T20:11:29.296Z,11.07
2023-01-22T20:14:17.194Z,11.97
2023-01-22T20:17:04.109Z,13.33
2023-01-22T20:19:50.500Z,14.70
2023-01-22T20:22:36.880Z,12.83
2023-01-22T20:25:23.601Z,21.50
2023-01-22T20:28:13.444Z,16.63
2023-01-22T20:31:04.057Z,15.27
2023-01-22T20:33:52.437Z,15.27
2023-01-22T20:36:39.706Z,11.90
2023-01-22T20:39:26.639Z,13.03
2023-01-22T20:42:13.204Z,11.07
2023-01-22T20:45:00.099Z,10.60
2023-01-22T20:47:48.357Z,13.97
2023-01-22T20:50:34.753Z,13.80
2023-01-22T20:53:21.162Z,13.27
2023-01-22T20:56:09.817Z,14.33
2023-01-22T20:58:57.562Z,11.27
2023-01-22T21:01:44.452Z,11.20
2023-01-22T21:04:32.098Z,16.93
2023-01-22T21:07:18.782Z,11.03
2023-01-22T21:10:05.688Z,13.10
2023-01-22T21:12:52.374Z,15.73
2023-01-22T21:15:38.812Z,13.90
2023-01-22T21:18:25.917Z,14.87
2023-01-22T21:21:17.651Z,11.60
2023-01-22T21:24:04.346Z,14.33
2023-01-22T21:26:51.496Z,12.33
2023-01-22T21:29:37.971Z,12.60
2023-01-22T21:32:24.433Z,9.70
2023-01-22T21:35:11.560Z,9.43
2023-01-22T21:37:59.467Z,10.37
2023-01-22T21:40:46.148Z,14.50
2023-01-22T21:43:50.239Z,9.93
2023-01-22T21:46:38.449Z,11.97
2023-01-22T21:49:24.952Z,12.87
2023-01-22T21:52:11.368Z,11.67
2023-01-22T21:54:59.189Z,11.80
2023-01-22T21:57:45.925Z,12.13
2023-01-22T22:00:32.697Z,13.30
2023-01-22T22:03:19.184Z,14.17
2023-01-22T22:06:05.952Z,12.57
2023-01-22T22:08:52.412Z,17.13
2023-01-22T22:11:40.172Z,15.47
2023-01-22T22:14:26.732Z,16.90
2023-01-22T22:17:13.061Z,16.47
2023-01-22T22:19:59.433Z,19.03
2023-01-22T22:22:46.009Z,17.93
2023-01-22T22:25:33.591Z,17.93
2023-01-22T22:28:21.540Z,22.90
2023-01-22T22:31:11.747Z,17.97
2023-01-22T22:33:58.784Z,22.87
2023-01-22T22:36:45.389Z,29.83
2023-01-22T22:39:31.702Z,13.60
2023-01-22T22:42:18.122Z,17.60
2023-01-22T22:45:06.809Z,16.57
2023-01-22T22:47:53.515Z,16.90
2023-01-22T22:50:40.976Z,20.63
2023-01-22T22:53:27.706Z,18.67
2023-01-22T22:56:15.533Z,18.33
2023-01-22T22:59:03.037Z,12.77
2023-01-22T23:01:51.697Z,17.40
2023-01-22T23:04:38.299Z,13.80
2023-01-22T23:07:24.564Z,15.60
2023-01-22T23:10:28.626Z,12.97
2023-01-22T23:13:15.449Z,21.37
2023-01-22T23:16:03.120Z,15.20
2023-01-22T23:18:52.184Z,11.70
2023-01-22T23:21:41.565Z,13.33
2023-01-22T23:24:28.790Z,11.43
2023-01-22T23:27:15.219Z,11.37
2023-01-22T23:30:01.562Z,10.03
2023-01-22T23:32:47.892Z,9.93
2023-01-22T23:35:35.637Z,11.80
2023-01-22T23:38:22.779Z,11.67
2023-01-22T23:41:15.713Z,12.17
2023-01-22T23:44:02.456Z,9.93
2023-01-22T23:46:48.885Z,12.00
2023-01-22T23:49:35.469Z,11.43
2023-01-22T23:52:23.273Z,13.80
2023-01-22T23:55:10.779Z,12.80
2023-01-22T23:57:57.175Z,11.30
